sensor_id;sensor_type;location;lat;lon;timestamp;P1;durP1;ratioP1;P2;durP2;ratioP2
20935;SDS011;10627;54.514;18.532;2022-11-03T00:01:47;4.90;;;1.17;;
20935;SDS011;10627;54.514;18.532;2022-11-03T00:07:35;8.23;;;1.20;;
20935;SDS011;10627;54.514;18.532;2022-11-03T00:12:42;3.53;;;1.20;;
20935;SDS011;10627;54.514;18.532;2022-11-03T05:52:15;7.43;;;2.40;;
20935;SDS011;10627;54.514;18.532;2022-11-03T06:05:13;9.37;;;2.33;;
20935;SDS011;10627;54.514;18.532;2022-11-03T06:44:46;12.23;;;2.80;;
20935;SDS011;10627;54.514;18.532;2022-11-03T06:49:48;6.73;;;2.40;;
20935;SDS011;10627;54.514;18.532;2022-11-03T07:00:15;9.00;;;2.90;;
20935;SDS011;10627;54.514;18.532;2022-11-03T07:05:20;9.10;;;2.80;;
20935;SDS011;10627;54.514;18.532;2022-11-03T07:10:26;7.03;;;2.73;;
20935;SDS011;10627;54.514;18.532;2022-11-03T07:15:35;8.17;;;2.80;;
20935;SDS011;10627;54.514;18.532;2022-11-03T07:20:39;14.93;;;3.23;;
20935;SDS011;10627;54.514;18.532;2022-11-03T07:25:40;8.47;;;3.00;;
20935;SDS011;10627;54.514;18.532;2022-11-03T07:30:41;17.73;;;3.30;;
20935;SDS011;10627;54.514;18.532;2022-11-03T07:36:01;7.50;;;2.53;;
20935;SDS011;10627;54.514;18.532;2022-11-03T07:41:24;8.97;;;2.53;;
20935;SDS011;10627;54.514;18.532;2022-11-03T07:46:26;8.07;;;2.17;;
20935;SDS011;10627;54.514;18.532;2022-11-03T07:51:28;9.50;;;2.43;;
20935;SDS011;10627;54.514;18.532;2022-11-03T07:56:37;7.43;;;2.00;;
20935;SDS011;10627;54.514;18.532;2022-11-03T08:06:53;6.97;;;2.25;;
20935;SDS011;10627;54.514;18.532;2022-11-03T08:12:07;6.40;;;2.08;;
20935;SDS011;10627;54.514;18.532;2022-11-03T08:17:08;5.72;;;1.70;;
20935;SDS011;10627;54.514;18.532;2022-11-03T08:22:09;8.60;;;1.95;;
20935;SDS011;10627;54.514;18.532;2022-11-03T08:27:09;8.02;;;2.13;;
20935;SDS011;10627;54.514;18.532;2022-11-03T08:32:10;8.43;;;2.05;;
20935;SDS011;10627;54.514;18.532;2022-11-03T08:37:11;6.97;;;2.60;;
20935;SDS011;10627;54.514;18.532;2022-11-03T08:42:12;9.20;;;2.40;;
20935;SDS011;10627;54.514;18.532;2022-11-03T08:47:13;8.85;;;2.50;;
20935;SDS011;10627;54.514;18.532;2022-11-03T08:52:14;7.63;;;2.58;;
20935;SDS011;10627;54.514;18.532;2022-11-03T08:57:15;12.93;;;2.92;;
20935;SDS011;10627;54.514;18.532;2022-11-03T09:02:16;12.18;;;2.45;;
20935;SDS011;10627;54.514;18.532;2022-11-03T09:07:17;6.95;;;2.08;;
20935;SDS011;10627;54.514;18.532;2022-11-03T09:12:19;7.72;;;2.40;;
20935;SDS011;10627;54.514;18.532;2022-11-03T09:17:20;8.38;;;2.45;;
20935;SDS011;10627;54.514;18.532;2022-11-03T09:22:21;11.05;;;2.10;;
20935;SDS011;10627;54.514;18.532;2022-11-03T09:27:21;10.98;;;2.47;;
20935;SDS011;10627;54.514;18.532;2022-11-03T09:32:22;11.57;;;2.53;;
20935;SDS011;10627;54.514;18.532;2022-11-03T09:37:24;13.60;;;2.42;;
20935;SDS011;10627;54.514;18.532;2022-11-03T09:42:25;11.45;;;2.00;;
20935;SDS011;10627;54.514;18.532;2022-11-03T09:47:59;13.90;;;1.73;;
20935;SDS011;10627;54.514;18.532;2022-11-03T09:52:52;6.32;;;2.05;;
20935;SDS011;10627;54.514;18.532;2022-11-03T09:57:56;8.05;;;1.92;;
20935;SDS011;10627;54.514;18.532;2022-11-03T10:02:58;7.35;;;1.63;;
20935;SDS011;10627;54.514;18.532;2022-11-03T10:08:00;7.90;;;1.63;;
20935;SDS011;10627;54.514;18.532;2022-11-03T10:13:02;9.50;;;1.80;;
20935;SDS011;10627;54.514;18.532;2022-11-03T10:18:08;8.65;;;1.20;;
20935;SDS011;10627;54.514;18.532;2022-11-03T10:23:11;3.58;;;1.58;;
20935;SDS011;10627;54.514;18.532;2022-11-03T10:28:25;8.27;;;1.33;;
20935;SDS011;10627;54.514;18.532;2022-11-03T10:38:53;8.43;;;2.08;;
20935;SDS011;10627;54.514;18.532;2022-11-03T10:44:02;5.78;;;2.00;;
20935;SDS011;10627;54.514;18.532;2022-11-03T10:49:11;5.03;;;1.90;;
20935;SDS011;10627;54.514;18.532;2022-11-03T10:54:14;4.80;;;1.60;;
20935;SDS011;10627;54.514;18.532;2022-11-03T10:59:31;10.55;;;1.63;;
20935;SDS011;10627;54.514;18.532;2022-11-03T11:04:34;5.97;;;1.67;;
20935;SDS011;10627;54.514;18.532;2022-11-03T11:09:35;4.32;;;1.55;;
20935;SDS011;10627;54.514;18.532;2022-11-03T11:14:37;5.75;;;1.60;;
20935;SDS011;10627;54.514;18.532;2022-11-03T11:25:23;8.18;;;1.63;;
20935;SDS011;10627;54.514;18.532;2022-11-03T11:36:23;7.05;;;1.38;;
20935;SDS011;10627;54.514;18.532;2022-11-03T11:42:25;6.78;;;1.60;;
20935;SDS011;10627;54.514;18.532;2022-11-03T11:46:55;4.70;;;1.08;;
20935;SDS011;10627;54.514;18.532;2022-11-03T11:51:59;3.95;;;1.33;;
20935;SDS011;10627;54.514;18.532;2022-11-03T11:57:01;6.53;;;1.50;;
20935;SDS011;10627;54.514;18.532;2022-11-03T12:02:02;9.25;;;1.77;;
20935;SDS011;10627;54.514;18.532;2022-11-03T12:12:49;7.13;;;1.75;;
20935;SDS011;10627;54.514;18.532;2022-11-03T12:55:24;12.38;;;2.63;;
20935;SDS011;10627;54.514;18.532;2022-11-03T13:00:30;8.25;;;1.90;;
20935;SDS011;10627;54.514;18.532;2022-11-03T13:05:39;13.27;;;2.20;;
20935;SDS011;10627;54.514;18.532;2022-11-03T13:17:19;6.70;;;1.88;;
20935;SDS011;10627;54.514;18.532;2022-11-03T13:22:26;9.77;;;1.80;;
20935;SDS011;10627;54.514;18.532;2022-11-03T13:27:47;8.07;;;2.13;;
20935;SDS011;10627;54.514;18.532;2022-11-03T13:33:01;8.60;;;2.45;;
20935;SDS011;10627;54.514;18.532;2022-11-03T13:38:28;10.48;;;2.20;;
20935;SDS011;10627;54.514;18.532;2022-11-03T13:49:28;7.93;;;2.55;;
20935;SDS011;10627;54.514;18.532;2022-11-03T13:55:11;9.80;;;2.40;;
20935;SDS011;10627;54.514;18.532;2022-11-03T14:00:46;6.18;;;2.15;;
20935;SDS011;10627;54.514;18.532;2022-11-03T14:06:11;10.68;;;2.45;;
20935;SDS011;10627;54.514;18.532;2022-11-03T14:11:50;11.05;;;2.85;;
20935;SDS011;10627;54.514;18.532;2022-11-03T14:17:39;5.85;;;2.47;;
20935;SDS011;10627;54.514;18.532;2022-11-03T14:22:44;6.72;;;2.72;;
20935;SDS011;10627;54.514;18.532;2022-11-03T14:34:09;25.63;;;10.43;;
20935;SDS011;10627;54.514;18.532;2022-11-03T14:39:15;12.40;;;6.38;;
20935;SDS011;10627;54.514;18.532;2022-11-03T14:44:15;9.57;;;3.70;;
20935;SDS011;10627;54.514;18.532;2022-11-03T14:49:22;6.38;;;2.78;;
20935;SDS011;10627;54.514;18.532;2022-11-03T14:54:26;13.27;;;3.33;;
20935;SDS011;10627;54.514;18.532;2022-11-03T14:59:32;11.97;;;3.90;;
20935;SDS011;10627;54.514;18.532;2022-11-03T15:04:41;12.82;;;3.67;;
20935;SDS011;10627;54.514;18.532;2022-11-03T15:09:45;12.47;;;4.80;;
20935;SDS011;10627;54.514;18.532;2022-11-03T15:14:49;11.83;;;4.77;;
20935;SDS011;10627;54.514;18.532;2022-11-03T15:19:52;10.73;;;5.13;;
20935;SDS011;10627;54.514;18.532;2022-11-03T15:25:20;10.30;;;4.97;;
20935;SDS011;10627;54.514;18.532;2022-11-03T15:30:48;16.47;;;5.50;;
20935;SDS011;10627;54.514;18.532;2022-11-03T15:35:50;26.20;;;7.37;;
20935;SDS011;10627;54.514;18.532;2022-11-03T15:46:54;17.93;;;6.50;;
20935;SDS011;10627;54.514;18.532;2022-11-03T15:51:57;21.10;;;7.63;;
20935;SDS011;10627;54.514;18.532;2022-11-03T15:56:58;20.17;;;7.53;;
20935;SDS011;10627;54.514;18.532;2022-11-03T16:02:01;15.90;;;6.80;;
20935;SDS011;10627;54.514;18.532;2022-11-03T16:07:19;20.60;;;8.10;;
20935;SDS011;10627;54.514;18.532;2022-11-03T16:12:30;62.10;;;24.43;;
20935;SDS011;10627;54.514;18.532;2022-11-03T16:17:32;26.17;;;11.43;;
20935;SDS011;10627;54.514;18.532;2022-11-03T16:22:37;17.23;;;6.93;;
20935;SDS011;10627;54.514;18.532;2022-11-03T16:27:42;24.80;;;9.20;;
20935;SDS011;10627;54.514;18.532;2022-11-03T16:32:51;18.20;;;8.87;;
20935;SDS011;10627;54.514;18.532;2022-11-03T16:38:03;21.93;;;8.93;;
20935;SDS011;10627;54.514;18.532;2022-11-03T16:43:12;25.87;;;8.43;;
20935;SDS011;10627;54.514;18.532;2022-11-03T16:48:13;25.03;;;9.33;;
20935;SDS011;10627;54.514;18.532;2022-11-03T16:53:15;21.87;;;9.00;;
20935;SDS011;10627;54.514;18.532;2022-11-03T17:29:54;31.83;;;11.33;;
20935;SDS011;10627;54.514;18.532;2022-11-03T17:34:57;30.40;;;13.77;;
20935;SDS011;10627;54.514;18.532;2022-11-03T17:39:58;30.70;;;12.63;;
20935;SDS011;10627;54.514;18.532;2022-11-03T17:45:00;32.53;;;13.97;;
20935;SDS011;10627;54.514;18.532;2022-11-03T17:50:02;36.73;;;13.37;;
20935;SDS011;10627;54.514;18.532;2022-11-03T17:55:05;25.47;;;11.90;;
20935;SDS011;10627;54.514;18.532;2022-11-03T18:00:16;28.07;;;11.77;;
20935;SDS011;10627;54.514;18.532;2022-11-03T18:05:29;31.07;;;11.60;;
20935;SDS011;10627;54.514;18.532;2022-11-03T19:41:50;33.13;;;14.23;;
20935;SDS011;10627;54.514;18.532;2022-11-03T19:47:13;28.43;;;14.07;;
20935;SDS011;10627;54.514;18.532;2022-11-03T20:03:03;34.23;;;14.33;;
20935;SDS011;10627;54.514;18.532;2022-11-03T20:08:06;33.93;;;13.63;;
20935;SDS011;10627;54.514;18.532;2022-11-03T20:13:12;26.70;;;13.13;;
20935;SDS011;10627;54.514;18.532;2022-11-03T20:23:30;28.63;;;13.87;;
20935;SDS011;10627;54.514;18.532;2022-11-03T20:39:11;27.33;;;12.77;;
20935;SDS011;10627;54.514;18.532;2022-11-03T20:44:18;30.37;;;13.80;;
20935;SDS011;10627;54.514;18.532;2022-11-03T20:49:23;28.37;;;12.47;;
20935;SDS011;10627;54.514;18.532;2022-11-03T20:54:25;27.30;;;12.20;;
20935;SDS011;10627;54.514;18.532;2022-11-03T20:59:28;32.00;;;13.80;;
20935;SDS011;10627;54.514;18.532;2022-11-03T21:10:05;33.17;;;13.13;;
20935;SDS011;10627;54.514;18.532;2022-11-03T21:20:27;24.47;;;12.27;;
20935;SDS011;10627;54.514;18.532;2022-11-03T21:25:29;34.07;;;13.20;;
20935;SDS011;10627;54.514;18.532;2022-11-03T21:30:30;27.13;;;11.17;;
20935;SDS011;10627;54.514;18.532;2022-11-03T21:35:34;31.05;;;13.43;;
20935;SDS011;10627;54.514;18.532;2022-11-03T21:40:36;31.27;;;12.50;;
20935;SDS011;10627;54.514;18.532;2022-11-03T21:45:40;25.63;;;11.37;;
20935;SDS011;10627;54.514;18.532;2022-11-03T21:50:41;28.80;;;12.30;;
20935;SDS011;10627;54.514;18.532;2022-11-03T21:55:46;26.93;;;12.20;;
20935;SDS011;10627;54.514;18.532;2022-11-03T22:00:47;28.33;;;12.57;;
20935;SDS011;10627;54.514;18.532;2022-11-03T22:06:18;29.97;;;12.93;;
20935;SDS011;10627;54.514;18.532;2022-11-03T22:11:19;28.90;;;12.40;;
20935;SDS011;10627;54.514;18.532;2022-11-03T22:16:23;24.60;;;12.57;;
20935;SDS011;10627;54.514;18.532;2022-11-03T22:21:37;27.77;;;12.43;;
20935;SDS011;10627;54.514;18.532;2022-11-03T22:26:56;28.53;;;13.07;;
20935;SDS011;10627;54.514;18.532;2022-11-03T22:31:59;31.90;;;14.13;;
20935;SDS011;10627;54.514;18.532;2022-11-03T22:36:59;28.33;;;13.27;;
20935;SDS011;10627;54.514;18.532;2022-11-03T22:42:00;29.97;;;12.60;;
20935;SDS011;10627;54.514;18.532;2022-11-03T22:47:36;29.93;;;12.83;;
20935;SDS011;10627;54.514;18.532;2022-11-03T22:52:47;26.07;;;13.33;;
20935;SDS011;10627;54.514;18.532;2022-11-03T22:58:49;33.58;;;15.38;;
20935;SDS011;10627;54.514;18.532;2022-11-03T23:03:50;31.63;;;14.00;;
20935;SDS011;10627;54.514;18.532;2022-11-03T23:08:51;34.43;;;13.77;;
20935;SDS011;10627;54.514;18.532;2022-11-03T23:13:53;24.60;;;12.77;;
20935;SDS011;10627;54.514;18.532;2022-11-03T23:18:54;33.17;;;13.00;;
20935;SDS011;10627;54.514;18.532;2022-11-03T23:24:14;28.80;;;13.83;;
20935;SDS011;10627;54.514;18.532;2022-11-03T23:29:33;28.70;;;12.63;;
20935;SDS011;10627;54.514;18.532;2022-11-03T23:34:34;28.70;;;12.77;;
20935;SDS011;10627;54.514;18.532;2022-11-03T23:39:34;31.57;;;13.67;;
20935;SDS011;10627;54.514;18.532;2022-11-03T23:44:35;23.90;;;12.07;;
20935;SDS011;10627;54.514;18.532;2022-11-03T23:49:54;27.40;;;12.13;;
20935;SDS011;10627;54.514;18.532;2022-11-03T23:54:55;27.60;;;12.33;;
20935;SDS011;10627;54.514;18.532;2022-11-03T23:59:56;25.90;;;12.00;;
